Time;durP1;ratioP1;P1;durP2;ratioP2;P2;SDS_P1;SDS_P2;PMS_P1;PMS_P2;Temp;Humidity;BMP_temperature;BMP_pressure;BME280_temperature;BME280_humidity;BME280_pressure;Samples;Min_cycle;Max_cycle;Signal;HPM_P1;HPM_P2
2023/06/16 00:02:07;;;;;;;10.30;7.50;;;22.60;99.90;;;;;;5077644;28;20443;-96
2023/06/16 00:04:35;;;;;;;12.20;7.93;;;22.60;99.90;;;;;;5074372;28;20205;-94
2023/06/16 00:07:01;;;;;;;10.23;7.43;;;22.60;99.90;;;;;;5072799;28;20515;-96
2023/06/16 00:09:27;;;;;;;8.93;8.03;;;22.60;99.90;;;;;;5072589;28;20457;-94
2023/06/16 00:11:54;;;;;;;8.23;7.43;;;22.60;99.90;;;;;;5072001;28;20469;-94
2023/06/16 00:14:20;;;;;;;9.27;8.37;;;22.60;99.90;;;;;;5071698;28;20977;-92
2023/06/16 00:16:47;;;;;;;9.87;7.73;;;22.60;99.90;;;;;;5072761;28;20453;-96
2023/06/16 00:19:17;;;;;;;8.60;7.80;;;22.60;99.90;;;;;;5074704;28;20561;-96
2023/06/16 00:22:25;;;;;;;8.43;7.63;;;22.50;99.90;;;;;;5073501;28;20430;-96
2023/06/16 00:24:52;;;;;;;8.37;7.57;;;22.50;99.90;;;;;;5075058;28;20867;-96
2023/06/16 00:27:18;;;;;;;9.00;8.10;;;22.60;99.90;;;;;;5073847;28;20418;-96
2023/06/16 00:29:44;;;;;;;8.77;7.33;;;22.60;99.90;;;;;;5072050;28;20517;-93
2023/06/16 00:32:10;;;;;;;9.27;8.30;;;22.60;99.90;;;;;;5072369;28;20500;-94
2023/06/16 00:34:35;;;;;;;10.10;8.93;;;22.60;99.90;;;;;;5073402;28;20481;-96
2023/06/16 00:37:01;;;;;;;9.00;8.13;;;22.60;99.90;;;;;;5072483;28;20181;-94
2023/06/16 00:39:28;;;;;;;10.40;7.60;;;22.60;99.90;;;;;;5074471;28;20653;-94
2023/06/16 00:41:53;;;;;;;7.90;7.20;;;22.60;99.90;;;;;;5071463;28;20828;-96
2023/06/16 00:44:19;;;;;;;8.13;7.40;;;22.60;99.90;;;;;;5074445;28;20665;-93
2023/06/16 00:46:45;;;;;;;8.00;7.30;;;22.60;99.90;;;;;;5071758;28;20288;-93
2023/06/16 00:49:11;;;;;;;8.50;7.50;;;22.60;99.90;;;;;;5070391;28;20525;-93
2023/06/16 00:51:38;;;;;;;8.70;7.90;;;22.60;99.90;;;;;;5070543;28;20962;-94
2023/06/16 00:54:03;;;;;;;9.00;8.20;;;22.50;99.90;;;;;;5070664;28;20197;-93
2023/06/16 00:56:30;;;;;;;10.60;8.50;;;22.50;99.90;;;;;;5071094;28;20496;-94
2023/06/16 00:58:56;;;;;;;9.87;8.63;;;22.50;99.90;;;;;;5073739;28;20567;-93
2023/06/16 01:01:28;;;;;;;8.50;7.60;;;22.50;99.90;;;;;;5071571;28;20433;-94
2023/06/16 01:03:55;;;;;;;9.87;8.87;;;22.50;99.90;;;;;;5073418;28;20479;-96
2023/06/16 01:06:32;;;;;;;12.40;8.80;;;22.50;99.90;;;;;;5071846;28;20429;-95
2023/06/16 01:09:35;;;;;;;10.93;8.03;;;22.40;99.90;;;;;;5072161;28;20471;-95
2023/06/16 01:12:24;;;;;;;10.43;9.07;;;22.40;99.90;;;;;;5071746;28;20502;-93
2023/06/16 01:15:21;;;;;;;9.00;8.20;;;22.40;99.90;;;;;;5071883;28;20465;-96
2023/06/16 01:17:50;;;;;;;10.67;8.30;;;22.30;99.90;;;;;;5088089;28;20437;-93
2023/06/16 01:20:51;;;;;;;9.33;8.40;;;22.30;99.90;;;;;;5072351;28;20430;-96
2023/06/16 01:23:26;;;;;;;9.80;8.33;;;22.30;99.90;;;;;;5071406;28;20657;-96
2023/06/16 01:26:01;;;;;;;9.83;8.80;;;22.20;99.90;;;;;;5072797;28;20524;-96
2023/06/16 01:28:30;;;;;;;10.47;8.57;;;22.20;99.90;;;;;;5072389;28;20917;-96
2023/06/16 01:30:58;;;;;;;11.63;8.90;;;22.20;99.90;;;;;;5078993;28;20941;-96
2023/06/16 01:33:26;;;;;;;9.30;8.50;;;22.10;99.90;;;;;;5075393;28;20544;-96
2023/06/16 01:35:57;;;;;;;9.50;8.50;;;22.10;99.90;;;;;;5074524;28;20430;-96
2023/06/16 01:38:25;;;;;;;9.00;8.07;;;22.10;99.90;;;;;;5075140;28;20406;-96
2023/06/16 01:40:52;;;;;;;10.00;8.43;;;22.10;99.90;;;;;;5078245;28;20436;-96
2023/06/16 01:43:20;;;;;;;11.70;8.43;;;22.10;99.90;;;;;;5071187;28;20682;-96
2023/06/16 01:45:47;;;;;;;10.03;9.03;;;22.10;99.90;;;;;;5071650;28;21072;-94
2023/06/16 01:48:13;;;;;;;9.90;8.70;;;22.10;99.90;;;;;;5072292;28;20426;-96
2023/06/16 01:50:40;;;;;;;10.23;9.20;;;22.10;99.90;;;;;;5071603;28;20440;-96
2023/06/16 01:53:06;;;;;;;12.27;9.50;;;22.10;99.90;;;;;;5073056;28;20668;-96
2023/06/16 01:55:32;;;;;;;10.00;9.00;;;22.10;99.90;;;;;;5069865;28;20524;-95
2023/06/16 01:57:58;;;;;;;11.53;9.30;;;22.10;99.90;;;;;;5075385;28;20181;-93
2023/06/16 02:00:44;;;;;;;17.80;8.97;;;22.00;99.90;;;;;;5077866;28;20205;-96
2023/06/16 02:03:28;;;;;;;11.23;9.00;;;22.00;99.90;;;;;;5053323;28;20737;-95
2023/06/16 02:05:56;;;;;;;12.37;10.03;;;22.00;99.90;;;;;;5070973;28;20425;-93
2023/06/16 02:08:27;;;;;;;11.43;9.07;;;21.90;99.90;;;;;;5069590;28;20441;-93
2023/06/16 02:10:54;;;;;;;10.27;8.83;;;21.90;99.90;;;;;;5069907;28;20422;-96
2023/06/16 02:13:20;;;;;;;9.80;8.90;;;21.80;99.90;;;;;;5070114;28;20534;-93
2023/06/16 02:15:46;;;;;;;11.63;9.97;;;21.80;99.90;;;;;;5069226;28;20496;-94
2023/06/16 02:18:12;;;;;;;13.50;9.83;;;21.80;99.90;;;;;;5069377;28;20426;-96
2023/06/16 02:20:38;;;;;;;13.30;10.50;;;21.80;99.90;;;;;;5071659;28;20464;-96
2023/06/16 02:23:04;;;;;;;10.20;9.20;;;21.70;99.90;;;;;;5070690;28;20430;-94
2023/06/16 02:25:30;;;;;;;11.40;10.10;;;21.70;99.90;;;;;;5069911;28;20487;-93
2023/06/16 02:27:56;;;;;;;10.67;9.57;;;21.70;99.90;;;;;;5070502;28;20433;-96
2023/06/16 02:30:22;;;;;;;11.30;10.07;;;21.60;99.90;;;;;;5069960;28;20248;-92
2023/06/16 02:32:48;;;;;;;11.57;10.47;;;21.70;99.90;;;;;;5068620;28;20465;-93
2023/06/16 02:35:18;;;;;;;11.07;9.93;;;21.60;99.90;;;;;;5068890;28;20503;-96
2023/06/16 02:37:52;;;;;;;11.20;10.10;;;21.70;99.90;;;;;;5067961;28;20421;-96
2023/06/16 02:40:19;;;;;;;14.93;10.13;;;21.60;99.90;;;;;;5069414;28;20795;-96
2023/06/16 02:42:46;;;;;;;11.27;9.90;;;21.60;99.90;;;;;;5069613;28;20417;-96
2023/06/16 02:45:12;;;;;;;10.20;9.30;;;21.60;99.90;;;;;;5070599;28;20634;-93
2023/06/16 02:47:39;;;;;;;14.53;9.70;;;21.60;99.90;;;;;;5068958;28;20429;-94
2023/06/16 02:50:06;;;;;;;12.30;10.07;;;21.60;99.90;;;;;;5069058;28;20209;-92
2023/06/16 02:52:32;;;;;;;11.13;10.00;;;21.60;99.90;;;;;;5071787;28;20465;-92
2023/06/16 02:54:58;;;;;;;12.17;9.47;;;21.50;99.90;;;;;;5079045;28;20650;-94
2023/06/16 02:57:24;;;;;;;10.73;9.83;;;21.50;99.90;;;;;;5077613;28;20430;-96
2023/06/16 02:59:50;;;;;;;11.53;10.43;;;21.60;99.90;;;;;;5074622;28;20476;-94
2023/06/16 03:02:16;;;;;;;12.60;9.93;;;21.60;99.90;;;;;;5072767;28;20185;-94
2023/06/16 03:04:42;;;;;;;11.87;10.40;;;21.60;99.90;;;;;;5070602;28;20288;-93
2023/06/16 03:07:10;;;;;;;11.77;10.57;;;21.60;99.90;;;;;;5069115;28;20219;-96
2023/06/16 03:09:35;;;;;;;11.67;10.53;;;21.60;99.90;;;;;;5068537;28;20444;-94
2023/06/16 03:12:01;;;;;;;11.23;10.20;;;21.60;99.90;;;;;;5069298;28;20453;-96
2023/06/16 03:14:27;;;;;;;12.97;11.30;;;21.70;99.90;;;;;;5069140;28;20942;-96
2023/06/16 03:16:55;;;;;;;10.53;9.53;;;21.70;99.90;;;;;;5068620;28;20437;-93
2023/06/16 03:19:21;;;;;;;10.60;9.50;;;21.70;99.90;;;;;;5069003;28;20204;-93
2023/06/16 03:21:50;;;;;;;11.57;10.37;;;21.70;99.90;;;;;;5069412;28;20444;-94
2023/06/16 03:24:19;;;;;;;11.17;9.40;;;21.70;99.90;;;;;;5068973;28;20839;-93
2023/06/16 03:26:46;;;;;;;11.30;10.13;;;21.70;99.90;;;;;;5068426;28;20476;-96
2023/06/16 03:29:12;;;;;;;12.00;10.67;;;21.60;99.90;;;;;;5068689;28;20438;-96
2023/06/16 03:31:39;;;;;;;11.80;10.23;;;21.70;99.90;;;;;;5080759;28;20418;-94
2023/06/16 03:34:05;;;;;;;12.87;10.70;;;21.70;99.90;;;;;;5068472;28;20440;-94
2023/06/16 03:36:39;;;;;;;12.23;10.87;;;21.70;99.90;;;;;;5069392;28;20425;-96
2023/06/16 03:39:05;;;;;;;11.23;10.17;;;21.70;99.90;;;;;;5074196;28;20460;-93
2023/06/16 03:41:33;;;;;;;11.43;10.00;;;21.70;99.90;;;;;;5072356;28;20420;-96
2023/06/16 03:43:58;;;;;;;10.00;9.20;;;21.60;99.90;;;;;;5068783;28;20441;-96
2023/06/16 03:46:24;;;;;;;11.80;10.40;;;21.60;99.90;;;;;;5068974;28;20433;-96
2023/06/16 03:48:50;;;;;;;12.23;10.37;;;21.60;99.90;;;;;;5072241;28;20399;-93
2023/06/16 03:51:17;;;;;;;11.93;10.50;;;21.60;99.90;;;;;;5071262;28;20925;-95
2023/06/16 03:53:43;;;;;;;11.53;10.17;;;21.60;99.90;;;;;;5070910;28;20514;-93
2023/06/16 03:56:09;;;;;;;13.63;10.43;;;21.60;99.90;;;;;;5070809;28;20919;-93
2023/06/16 03:58:36;;;;;;;15.07;11.10;;;21.60;99.90;;;;;;5070320;28;20410;-96
2023/06/16 04:01:03;;;;;;;12.43;11.23;;;21.70;99.90;;;;;;5070827;28;20942;-93
2023/06/16 04:03:29;;;;;;;12.30;9.50;;;21.70;99.90;;;;;;5070921;28;20500;-93
2023/06/16 04:05:55;;;;;;;11.10;10.00;;;21.70;99.90;;;;;;5070822;28;20460;-96
2023/06/16 04:08:20;;;;;;;12.77;10.07;;;21.70;99.90;;;;;;5071501;28;20421;-93
2023/06/16 04:10:47;;;;;;;11.97;9.90;;;21.70;99.90;;;;;;5070918;28;20433;-96
2023/06/16 04:13:12;;;;;;;11.03;9.93;;;21.70;99.90;;;;;;5070249;28;20240;-96
2023/06/16 04:15:38;;;;;;;11.30;10.20;;;21.70;99.90;;;;;;5071491;28;20814;-92
2023/06/16 04:18:04;;;;;;;12.57;10.57;;;21.70;99.90;;;;;;5073476;28;20410;-96
2023/06/16 04:20:31;;;;;;;11.00;9.93;;;21.60;99.90;;;;;;5070786;28;20674;-92
2023/06/16 04:22:56;;;;;;;11.93;10.57;;;21.60;99.90;;;;;;5072164;28;20414;-92
2023/06/16 04:25:26;;;;;;;10.43;9.43;;;21.60;99.90;;;;;;5071548;28;20865;-96
2023/06/16 04:27:52;;;;;;;12.20;10.90;;;21.70;99.90;;;;;;5074309;28;20189;-96
2023/06/16 04:30:24;;;;;;;13.20;9.73;;;21.70;99.90;;;;;;5074340;28;20485;-96
2023/06/16 04:32:50;;;;;;;15.20;9.53;;;21.70;99.90;;;;;;5077595;28;20965;-92
2023/06/16 04:35:16;;;;;;;11.27;9.53;;;21.70;99.90;;;;;;5080476;28;20437;-92
2023/06/16 04:37:42;;;;;;;48.70;30.43;;;21.70;99.90;;;;;;5070649;28;20532;-96
2023/06/16 04:40:11;;;;;;;101.17;61.83;;;21.70;99.90;;;;;;5070461;28;20453;-96
2023/06/16 04:42:37;;;;;;;11.00;9.90;;;21.80;99.90;;;;;;5069909;28;20441;-93
2023/06/16 04:45:03;;;;;;;10.83;9.83;;;21.80;99.90;;;;;;5070017;28;20811;-93
2023/06/16 04:47:29;;;;;;;10.90;9.90;;;21.80;99.90;;;;;;5069862;28;20434;-96
2023/06/16 04:49:55;;;;;;;9.70;8.80;;;21.80;99.90;;;;;;5070910;28;20445;-92
2023/06/16 04:52:21;;;;;;;9.97;9.03;;;21.80;99.90;;;;;;5070114;28;20412;-95
2023/06/16 04:54:47;;;;;;;9.40;8.60;;;21.80;99.90;;;;;;5067421;28;20446;-92
2023/06/16 04:57:13;;;;;;;9.10;8.23;;;21.80;99.90;;;;;;5064171;28;20788;-93
2023/06/16 04:59:39;;;;;;;10.57;9.30;;;21.80;99.90;;;;;;5065636;28;20209;-95
2023/06/16 05:02:05;;;;;;;11.57;9.80;;;21.90;99.90;;;;;;5052577;28;20434;-93
2023/06/16 05:04:31;;;;;;;10.70;9.60;;;21.90;99.90;;;;;;5082114;28;20449;-96
2023/06/16 05:06:57;;;;;;;10.03;9.10;;;21.90;99.90;;;;;;5072981;28;20932;-95
2023/06/16 05:09:23;;;;;;;9.40;8.50;;;21.90;99.90;;;;;;5069365;28;20793;-96
2023/06/16 05:11:49;;;;;;;10.30;8.93;;;21.90;99.90;;;;;;5081412;28;20440;-93
2023/06/16 05:14:15;;;;;;;9.50;8.60;;;21.90;99.90;;;;;;5072391;28;20201;-93
2023/06/16 05:16:41;;;;;;;11.17;9.83;;;21.90;99.90;;;;;;5084495;28;20437;-93
2023/06/16 05:19:07;;;;;;;10.20;8.53;;;21.90;99.90;;;;;;5066313;28;20453;-92
2023/06/16 05:21:32;;;;;;;10.33;9.17;;;21.90;99.90;;;;;;5054733;28;21738;-96
2023/06/16 05:23:58;;;;;;;9.87;8.87;;;21.90;99.90;;;;;;5058712;28;20216;-92
2023/06/16 05:26:25;;;;;;;10.00;8.97;;;21.90;99.90;;;;;;5068645;28;20483;-96
2023/06/16 05:28:51;;;;;;;10.70;8.97;;;21.90;99.90;;;;;;5073925;28;21045;-94
2023/06/16 05:31:20;;;;;;;11.37;8.40;;;21.90;99.90;;;;;;5075232;28;20523;-93
2023/06/16 05:33:45;;;;;;;9.07;8.27;;;21.90;99.90;;;;;;5067184;28;20237;-93
2023/06/16 05:36:16;;;;;;;9.73;8.20;;;21.90;99.90;;;;;;5067309;28;20622;-96
2023/06/16 05:38:41;;;;;;;10.33;8.97;;;22.00;99.90;;;;;;5059215;28;20468;-93
2023/06/16 05:41:07;;;;;;;17.90;10.50;;;22.00;99.90;;;;;;5061735;28;20524;-96
2023/06/16 05:43:34;;;;;;;10.10;9.10;;;22.00;99.90;;;;;;5062431;28;20433;-96
2023/06/16 05:46:00;;;;;;;9.53;8.63;;;22.00;99.90;;;;;;5051712;28;20220;-96
2023/06/16 05:48:26;;;;;;;10.67;8.90;;;22.00;99.90;;;;;;5055597;28;20783;-93
2023/06/16 05:50:52;;;;;;;8.97;8.20;;;22.10;99.90;;;;;;5051434;28;20880;-95
2023/06/16 05:53:17;;;;;;;10.00;9.03;;;22.00;99.90;;;;;;5052640;28;20217;-96
2023/06/16 05:55:44;;;;;;;8.97;8.17;;;22.10;99.90;;;;;;5081299;28;20465;-94
2023/06/16 05:58:09;;;;;;;9.30;8.40;;;22.10;99.90;;;;;;5066513;28;20210;-96
2023/06/16 06:00:35;;;;;;;9.67;8.73;;;22.10;99.90;;;;;;5061439;28;20457;-92
2023/06/16 06:03:02;;;;;;;95.83;62.30;;;22.10;99.90;;;;;;5059120;28;20189;-95
2023/06/16 06:05:28;;;;;;;11.53;10.33;;;22.10;99.90;;;;;;5072110;28;20208;-96
2023/06/16 06:07:56;;;;;;;9.50;8.60;;;22.10;99.90;;;;;;5066299;28;20426;-92
2023/06/16 06:10:22;;;;;;;9.60;8.63;;;22.10;99.90;;;;;;5057233;28;20594;-92
2023/06/16 06:12:49;;;;;;;9.43;8.53;;;22.10;99.90;;;;;;5069804;28;20964;-96
2023/06/16 06:15:15;;;;;;;10.07;8.90;;;22.10;99.90;;;;;;5064274;28;20250;-96
2023/06/16 06:17:41;;;;;;;9.57;8.67;;;22.10;99.90;;;;;;5068969;28;20437;-96
2023/06/16 06:20:11;;;;;;;9.97;8.53;;;22.10;99.90;;;;;;5061828;28;21010;-96
2023/06/16 06:22:36;;;;;;;9.27;8.30;;;22.00;99.90;;;;;;5061389;28;20938;-96
2023/06/16 06:25:04;;;;;;;9.67;8.67;;;22.00;99.90;;;;;;5047174;28;20449;-96
2023/06/16 06:27:30;;;;;;;9.70;8.70;;;22.00;99.90;;;;;;5060494;28;20748;-93
2023/06/16 06:29:56;;;;;;;11.00;8.57;;;22.00;99.90;;;;;;5082324;28;20727;-95
2023/06/16 06:32:22;;;;;;;10.43;8.93;;;21.90;99.90;;;;;;5079971;28;21128;-96
2023/06/16 06:34:48;;;;;;;10.63;8.73;;;21.90;99.90;;;;;;5045105;28;20731;-93
2023/06/16 06:37:18;;;;;;;9.37;8.47;;;21.90;99.90;;;;;;5049290;28;20460;-92
2023/06/16 06:39:45;;;;;;;9.97;8.27;;;22.00;99.90;;;;;;5057607;28;20205;-96
2023/06/16 06:42:12;;;;;;;16.40;9.50;;;22.00;99.90;;;;;;5049255;28;21174;-92
2023/06/16 06:44:38;;;;;;;9.07;8.17;;;22.10;99.90;;;;;;5065404;28;20595;-91
2023/06/16 06:47:04;;;;;;;9.70;8.80;;;22.10;99.90;;;;;;5059636;28;20465;-93
2023/06/16 06:49:30;;;;;;;10.57;9.57;;;22.10;99.90;;;;;;5048352;28;20478;-96
2023/06/16 06:51:56;;;;;;;9.40;8.57;;;22.10;99.90;;;;;;5058335;28;20755;-96
2023/06/16 06:54:22;;;;;;;10.70;8.50;;;22.10;99.90;;;;;;5050007;28;21127;-93
2023/06/16 06:56:48;;;;;;;10.70;9.60;;;22.20;99.90;;;;;;5047176;28;20459;-93
2023/06/16 06:59:14;;;;;;;9.17;8.37;;;22.20;99.90;;;;;;5059075;28;20697;-93
2023/06/16 07:01:40;;;;;;;11.03;8.57;;;22.20;99.90;;;;;;5053748;28;20549;-94
2023/06/16 07:04:06;;;;;;;9.90;8.90;;;22.20;99.90;;;;;;5065133;28;20465;-92
2023/06/16 07:06:32;;;;;;;10.13;9.17;;;22.30;99.90;;;;;;5063043;28;20185;-93
2023/06/16 07:08:58;;;;;;;9.23;8.33;;;22.30;99.90;;;;;;5063929;28;20196;-96
2023/06/16 07:11:24;;;;;;;18.57;13.40;;;22.40;99.90;;;;;;5062568;28;21087;-96
2023/06/16 07:13:50;;;;;;;9.70;8.70;;;22.40;99.90;;;;;;5062388;28;20630;-96
2023/06/16 07:16:16;;;;;;;11.20;9.33;;;22.40;99.90;;;;;;5059252;28;20450;-93
2023/06/16 07:18:42;;;;;;;9.73;8.70;;;22.50;99.90;;;;;;5060861;28;20706;-93
2023/06/16 07:21:08;;;;;;;9.87;8.90;;;22.40;99.90;;;;;;5066333;28;20433;-93
2023/06/16 07:23:34;;;;;;;9.93;9.00;;;22.50;99.90;;;;;;5080711;28;20823;-95
2023/06/16 07:26:00;;;;;;;8.97;8.17;;;22.50;99.90;;;;;;5066064;28;20185;-96
2023/06/16 07:28:26;;;;;;;9.23;8.33;;;22.60;99.90;;;;;;5068665;28;20833;-93
2023/06/16 07:30:52;;;;;;;9.00;8.20;;;22.70;99.90;;;;;;5067843;28;20185;-96
2023/06/16 07:33:18;;;;;;;11.43;10.50;;;22.70;99.90;;;;;;5053867;28;20262;-92
2023/06/16 07:35:44;;;;;;;12.03;9.20;;;22.80;99.90;;;;;;5068211;28;20975;-93
2023/06/16 07:38:10;;;;;;;9.87;8.73;;;22.80;99.90;;;;;;5069989;28;20181;-96
2023/06/16 07:40:37;;;;;;;10.83;9.73;;;22.80;99.90;;;;;;5069659;28;20454;-96
2023/06/16 07:43:03;;;;;;;13.20;9.60;;;22.90;99.90;;;;;;5068532;28;20442;-96
2023/06/16 07:45:31;;;;;;;10.47;9.37;;;22.90;99.90;;;;;;5058271;28;20813;-93
2023/06/16 07:47:58;;;;;;;19.93;16.47;;;23.00;99.90;;;;;;5075308;28;20430;-96
2023/06/16 07:50:24;;;;;;;22.27;16.53;;;23.00;99.90;;;;;;5070608;28;20729;-96
2023/06/16 07:52:52;;;;;;;13.60;9.87;;;23.10;99.90;;;;;;5081051;28;20494;-94
2023/06/16 07:55:18;;;;;;;10.53;9.07;;;23.10;99.90;;;;;;5068147;28;20716;-96
2023/06/16 07:57:44;;;;;;;10.70;8.97;;;23.20;99.90;;;;;;5069414;28;20472;-96
2023/06/16 08:00:14;;;;;;;10.80;9.70;;;23.30;99.90;;;;;;5055882;28;20958;-94
2023/06/16 08:02:44;;;;;;;9.13;8.20;;;23.30;99.90;;;;;;5044541;28;20198;-96
2023/06/16 08:05:11;;;;;;;10.83;8.30;;;23.30;99.90;;;;;;5088229;28;20454;-93
2023/06/16 08:07:37;;;;;;;11.23;8.60;;;23.40;99.90;;;;;;5053706;28;20477;-94
2023/06/16 08:10:04;;;;;;;10.87;8.90;;;23.40;99.90;;;;;;5065062;28;20431;-94
2023/06/16 08:12:32;;;;;;;9.43;8.43;;;23.50;99.90;;;;;;5056021;28;20484;-96
2023/06/16 08:14:58;;;;;;;9.93;8.93;;;23.50;99.90;;;;;;5070166;28;20440;-95
2023/06/16 08:17:24;;;;;;;10.50;9.40;;;23.50;99.90;;;;;;5066747;28;20484;-94
2023/06/16 08:19:52;;;;;;;10.47;9.13;;;23.60;99.90;;;;;;5067120;28;20673;-96
2023/06/16 08:22:18;;;;;;;12.40;9.80;;;23.60;99.90;;;;;;5051678;28;20529;-94
2023/06/16 08:24:44;;;;;;;12.57;9.30;;;23.60;99.90;;;;;;5060324;28;20542;-96
2023/06/16 08:27:11;;;;;;;10.13;8.77;;;23.60;99.90;;;;;;5053755;28;20763;-94
2023/06/16 08:29:37;;;;;;;9.10;8.20;;;23.60;99.90;;;;;;5058695;28;21053;-96
2023/06/16 08:32:03;;;;;;;8.53;7.73;;;23.60;99.90;;;;;;5055952;28;20441;-96
2023/06/16 08:34:29;;;;;;;10.03;8.97;;;23.60;99.90;;;;;;5058382;28;20444;-96
2023/06/16 08:36:55;;;;;;;9.70;8.80;;;23.60;99.90;;;;;;5059152;28;20272;-97
2023/06/16 08:39:21;;;;;;;10.10;9.07;;;23.60;99.90;;;;;;5057500;28;20456;-96
2023/06/16 08:41:49;;;;;;;9.67;8.77;;;23.60;99.90;;;;;;5055043;28;20436;-95
2023/06/16 08:44:18;;;;;;;9.40;8.50;;;23.70;99.90;;;;;;5057900;28;20820;-94
2023/06/16 08:46:46;;;;;;;10.87;9.43;;;23.70;99.90;;;;;;5057485;28;20457;-94
2023/06/16 08:49:14;;;;;;;59.40;41.23;;;23.70;99.90;;;;;;5047892;28;20459;-95
2023/06/16 08:51:47;;;;;;;11.97;10.60;;;23.70;99.90;;;;;;5076509;28;20457;-96
2023/06/16 08:54:14;;;;;;;10.73;9.57;;;23.70;99.90;;;;;;5058956;28;21107;-96
2023/06/16 08:56:42;;;;;;;9.80;8.90;;;23.70;99.90;;;;;;5066198;28;20556;-94
2023/06/16 08:59:08;;;;;;;10.53;9.53;;;23.70;99.90;;;;;;5053021;28;20460;-94
2023/06/16 09:01:39;;;;;;;11.70;9.67;;;23.70;99.90;;;;;;5065049;28;20413;-94
2023/06/16 09:04:15;;;;;;;10.23;9.23;;;23.80;99.90;;;;;;5046457;28;21017;-93
2023/06/16 09:06:47;;;;;;;9.87;8.80;;;23.70;99.90;;;;;;5046949;28;20431;-94
2023/06/16 09:09:13;;;;;;;10.70;9.20;;;23.80;99.90;;;;;;5056235;28;20990;-94
2023/06/16 09:11:39;;;;;;;10.93;9.83;;;23.80;99.90;;;;;;5051397;28;20511;-94
2023/06/16 09:14:13;;;;;;;10.43;9.00;;;23.80;99.90;;;;;;5065534;28;20478;-93
2023/06/16 09:16:40;;;;;;;9.60;8.60;;;23.80;99.90;;;;;;5064911;28;20609;-94
2023/06/16 09:19:09;;;;;;;10.90;8.30;;;23.70;99.90;;;;;;5047336;28;20494;-93
2023/06/16 09:21:38;;;;;;;10.07;9.07;;;23.80;99.90;;;;;;5066058;28;20457;-96
2023/06/16 09:24:05;;;;;;;394.17;259.87;;;23.80;99.90;;;;;;5056781;28;20452;-96
2023/06/16 09:26:35;;;;;;;9.30;8.40;;;23.80;99.90;;;;;;5060441;28;20441;-96
2023/06/16 09:29:21;;;;;;;27.30;15.03;;;23.80;99.90;;;;;;5045566;28;20511;-95
2023/06/16 09:31:47;;;;;;;10.80;9.13;;;23.90;99.90;;;;;;5069604;28;20507;-94
2023/06/16 09:34:13;;;;;;;10.63;9.63;;;23.80;99.90;;;;;;5064820;28;20551;-96
2023/06/16 09:36:40;;;;;;;13.00;9.00;;;23.90;99.90;;;;;;5048615;28;20452;-94
2023/06/16 09:39:07;;;;;;;10.60;9.47;;;23.90;99.90;;;;;;5057712;28;20438;-96
2023/06/16 09:41:42;;;;;;;9.63;8.73;;;23.90;99.90;;;;;;5061506;28;20531;-94
2023/06/16 09:44:11;;;;;;;10.10;9.10;;;23.90;99.90;;;;;;5063096;28;20809;-96
2023/06/16 09:46:37;;;;;;;10.77;9.67;;;23.90;99.90;;;;;;5066044;28;20842;-96
2023/06/16 09:49:04;;;;;;;11.30;9.30;;;23.90;99.90;;;;;;5064678;28;20416;-96
2023/06/16 09:51:30;;;;;;;9.77;8.77;;;23.90;99.90;;;;;;5063865;28;20589;-95
2023/06/16 09:53:56;;;;;;;11.37;8.80;;;23.90;99.90;;;;;;5061442;28;20473;-94
2023/06/16 09:56:22;;;;;;;12.80;9.03;;;24.00;99.90;;;;;;5054234;28;20194;-96
2023/06/16 09:58:50;;;;;;;9.30;8.50;;;24.00;99.90;;;;;;5049127;28;20448;-96
2023/06/16 10:01:17;;;;;;;12.90;9.30;;;24.10;99.90;;;;;;5060449;28;20491;-95
2023/06/16 10:03:49;;;;;;;11.33;8.00;;;24.10;99.90;;;;;;5065566;28;20550;-96
2023/06/16 10:06:25;;;;;;;10.10;9.10;;;24.10;99.90;;;;;;5062827;28;20448;-95
2023/06/16 10:08:54;;;;;;;10.57;9.53;;;24.10;99.90;;;;;;5079023;28;20460;-96
2023/06/16 10:11:21;;;;;;;10.17;9.17;;;24.10;99.90;;;;;;5064784;28;20431;-95
2023/06/16 10:14:01;;;;;;;47.40;35.00;;;24.20;99.90;;;;;;5062416;28;20482;-96
2023/06/16 10:16:29;;;;;;;13.47;12.07;;;24.20;99.90;;;;;;5064784;28;20671;-94
2023/06/16 10:18:59;;;;;;;10.90;9.20;;;24.20;99.90;;;;;;5065513;28;20456;-94
2023/06/16 10:21:26;;;;;;;11.30;8.93;;;24.20;99.90;;;;;;5054260;28;20790;-96
2023/06/16 10:23:52;;;;;;;10.97;9.87;;;24.20;99.90;;;;;;5055827;28;20948;-96
2023/06/16 10:26:18;;;;;;;10.50;8.77;;;24.20;99.90;;;;;;5065729;28;20659;-94
2023/06/16 10:28:45;;;;;;;9.70;8.80;;;24.30;99.90;;;;;;5065689;28;20283;-96
2023/06/16 10:31:12;;;;;;;11.53;9.67;;;24.30;99.90;;;;;;5056005;28;20449;-96
2023/06/16 10:33:57;;;;;;;10.57;8.20;;;24.30;99.90;;;;;;5059474;28;20919;-95
2023/06/16 10:36:23;;;;;;;9.63;8.73;;;24.30;99.90;;;;;;5067302;28;20438;-94
2023/06/16 10:39:01;;;;;;;9.80;8.80;;;24.30;99.90;;;;;;5074006;28;20468;-96
2023/06/16 10:41:31;;;;;;;9.83;8.40;;;24.30;99.90;;;;;;5071274;28;20444;-96
2023/06/16 10:44:32;;;;;;;10.03;9.00;;;24.30;99.90;;;;;;5075458;28;20456;-94
2023/06/16 10:47:10;;;;;;;11.07;9.10;;;24.30;99.90;;;;;;5044353;28;20444;-96
2023/06/16 10:49:51;;;;;;;9.47;8.60;;;24.30;99.90;;;;;;5072163;28;20448;-95
2023/06/16 10:52:18;;;;;;;9.70;8.80;;;24.40;99.90;;;;;;5072222;28;21148;-93
2023/06/16 10:54:45;;;;;;;10.90;9.90;;;24.40;99.90;;;;;;5062763;28;20432;-95
2023/06/16 10:57:14;;;;;;;9.33;8.43;;;24.40;99.90;;;;;;5057224;28;20815;-92
2023/06/16 11:00:10;;;;;;;8.70;7.90;;;24.40;99.90;;;;;;5066336;28;20471;-96
2023/06/16 11:02:37;;;;;;;15.90;8.43;;;24.50;99.90;;;;;;5062720;28;20447;-95
2023/06/16 11:05:10;;;;;;;9.97;9.00;;;24.60;99.90;;;;;;5060475;28;20549;-92
2023/06/16 11:07:46;;;;;;;9.60;8.60;;;24.60;99.90;;;;;;5058119;28;20453;-94
2023/06/16 11:10:24;;;;;;;9.63;8.50;;;24.70;99.90;;;;;;5063614;28;20445;-94
2023/06/16 11:12:50;;;;;;;9.40;8.13;;;24.70;99.90;;;;;;5075967;28;20477;-95
2023/06/16 11:15:16;;;;;;;9.60;8.70;;;24.70;99.90;;;;;;5080836;28;20463;-94
2023/06/16 11:17:47;;;;;;;10.43;9.43;;;24.80;99.90;;;;;;5053247;28;20236;-94
2023/06/16 11:20:14;;;;;;;9.13;8.23;;;24.80;99.90;;;;;;5058995;28;20609;-92
2023/06/16 11:22:42;;;;;;;10.00;8.17;;;24.90;99.90;;;;;;5054844;28;21750;-91
2023/06/16 11:25:27;;;;;;;10.07;9.07;;;24.90;99.90;;;;;;5055196;28;20454;-94
2023/06/16 11:27:53;;;;;;;11.50;8.33;;;24.90;99.90;;;;;;5063076;28;20434;-93
2023/06/16 11:30:20;;;;;;;9.37;7.90;;;25.00;99.90;;;;;;5033871;28;20464;-92
2023/06/16 11:32:49;;;;;;;9.00;8.10;;;25.00;99.90;;;;;;5050251;28;20489;-92
2023/06/16 11:35:15;;;;;;;9.77;8.00;;;25.00;99.90;;;;;;5070021;28;20501;-91
2023/06/16 11:37:50;;;;;;;8.87;7.70;;;25.10;99.90;;;;;;5058281;28;20790;-93
2023/06/16 11:40:19;;;;;;;9.03;7.50;;;25.10;99.90;;;;;;5056674;28;20239;-94
2023/06/16 11:43:02;;;;;;;10.17;9.17;;;25.10;99.90;;;;;;5052835;28;20434;-92
2023/06/16 11:45:30;;;;;;;8.40;7.70;;;25.20;99.90;;;;;;5055027;28;20650;-92
2023/06/16 11:47:59;;;;;;;9.53;8.47;;;25.30;99.90;;;;;;5054371;28;20479;-91
2023/06/16 11:50:25;;;;;;;8.70;7.90;;;25.30;99.90;;;;;;5058623;28;20429;-94
2023/06/16 11:52:52;;;;;;;7.83;7.03;;;25.30;99.90;;;;;;5056104;28;20482;-96
2023/06/16 11:55:19;;;;;;;12.70;8.27;;;25.30;99.90;;;;;;5055428;28;20531;-94
2023/06/16 11:57:45;;;;;;;9.30;8.40;;;25.30;99.90;;;;;;5053656;28;20625;-94
2023/06/16 12:00:13;;;;;;;8.27;7.47;;;25.30;99.90;;;;;;5055384;28;20457;-95
2023/06/16 12:02:40;;;;;;;8.43;7.63;;;25.30;99.90;;;;;;5049953;28;20473;-96
2023/06/16 12:05:12;;;;;;;8.33;7.43;;;25.30;99.90;;;;;;5054627;28;20481;-92
2023/06/16 12:08:36;;;;;;;7.80;7.00;;;25.30;99.90;;;;;;5056646;28;20429;-92
2023/06/16 12:10:53;;;;;;;8.90;8.00;;;25.30;99.90;;;;;;5049774;28;20464;-93
2023/06/16 12:13:19;;;;;;;10.03;7.30;;;25.30;99.90;;;;;;5067693;28;20465;-92
2023/06/16 12:15:45;;;;;;;8.50;7.60;;;25.30;99.90;;;;;;5054796;28;20753;-94
2023/06/16 12:18:11;;;;;;;12.73;9.87;;;25.30;99.90;;;;;;5058242;28;20951;-93
2023/06/16 12:20:39;;;;;;;7.37;6.57;;;25.30;99.90;;;;;;5039114;28;20564;-94
2023/06/16 12:23:10;;;;;;;9.73;8.63;;;25.30;99.90;;;;;;5060243;28;20539;-95
2023/06/16 12:25:36;;;;;;;7.50;6.40;;;25.30;99.90;;;;;;5057707;28;20454;-93
2023/06/16 12:28:03;;;;;;;10.03;7.63;;;25.30;99.90;;;;;;5062121;28;20397;-91
2023/06/16 12:30:35;;;;;;;8.07;7.27;;;25.20;99.90;;;;;;5062642;28;20644;-94
2023/06/16 12:33:09;;;;;;;6.37;5.77;;;25.20;99.90;;;;;;5060787;28;21013;-95
2023/06/16 12:35:35;;;;;;;7.93;7.23;;;25.10;99.90;;;;;;5059730;28;20918;-94
2023/06/16 12:38:01;;;;;;;7.37;6.60;;;25.10;99.90;;;;;;5064803;28;20510;-93
2023/06/16 12:40:33;;;;;;;9.80;6.67;;;25.00;99.90;;;;;;5066407;28;20458;-91
2023/06/16 12:43:25;;;;;;;10.20;6.10;;;25.00;99.90;;;;;;5066238;28;20877;-92
2023/06/16 12:45:52;;;;;;;8.63;6.00;;;24.80;99.90;;;;;;5070866;28;20505;-94